CheckWX is a tool to help pilots better visualize weather data.  It is not intended as a substitute for an official pre-flight weather briefing.

09:34:29 UTC

KXNA TAF
Northwest Arkansas Regional Airport
Fayetteville/Springdale/Rogers, Arkansas, USA
KXNA 210809Z 2108/2206 03005KT P6SM SKC TEMPO 2109/2113 BKN010 FM211300 13005KT P6SM SCT015 FM211800 16008KT P6SM SCT250

Jan-21@
08:00 UTC

Jan-21 @ 08:00 UTC

Jan-21@
13:00 UTC

Jan-21 @ 13:00 UTC

KXNA 210809Z 2108/2206 03005KT P6SM SKC
Wind
  • 030° at 5 KTS
Cloud Levels
  • Clear skies

Jan-21@
09:00 UTC

Jan-21 @ 09:00 UTC

Jan-21@
13:00 UTC

Jan-21 @ 13:00 UTC

TEMPO 2109/2113 BKN010

Temporary

Temporary Changes expected for less than half the time period

Cloud Levels
  • Broken at 1,000' AGL

Jan-21@
13:00 UTC

Jan-21 @ 13:00 UTC

Jan-21@
18:00 UTC

Jan-21 @ 18:00 UTC

FM211300 13005KT P6SM SCT015

From

From Standard forecast or significant change

Wind
  • 130° at 5 KTS
Cloud Levels
  • Scattered at 1,500' AGL

Jan-21@
18:00 UTC

Jan-21 @ 18:00 UTC

Jan-22@
06:00 UTC

Jan-22 @ 06:00 UTC

FM211800 16008KT P6SM SCT250

From

From Standard forecast or significant change

Wind
  • 160° at 8 KTS
Cloud Levels
  • Scattered at 25,000' AGL